Strona główna
METAR-TAF:

METAR-TAF

Lotnisko :

Port lotniczy Fargo-Hector

Fargo, Dakota Północna, Stany Zjednoczone

Szerokość geograficzna: 46-55-31N, Długość geograficzna: 096-48-40W, wysokość: 274 m

Aktualna obserwacja pogody

Raport powstał 40 minut temu, godzina 10:53 UTC
Wiatr 8 kt od wschód
Temperatura 11°C
Wilgotność 82%
Ciśnienie 1012 hPa
Widzialność: 16.1 km
bezchmurnie

METAR: KFAR 191053Z 09008KT 10SM CLR 11/08 A2987 RMK AO2 SLP116 T01110078

czas: 06:33 (11:33 UTC)

Prognoza

Raport powstał 6 godziny i 13 minut temu, godzina 05:20 UTC
Prognoza ważna od 19 godzina 06 UTC do 20 godzina 06 UTC
Wiatr 4 kt z kierunków zmiennych
Widzialność: 10 km
bezchmurnie
Od 19 godzina 1700 UTC
Wiatr 8 kt od południowy wschód
Widzialność: 10 km
Rozproszone chmury na wysokości 5000 ft
Od 20 godzina 0200 UTC
Wiatr 7 kt od wschodnio-południowy wschód
Widzialność: 10 km
Przerywane chmury na wysokości 9000 ft
przelotny w pobliże

TAF: KFAR 190520Z 1906/2006 VRB04KT P6SM SKC FM191700 14008KT P6SM SCT050 FM200200 11007KT P6SM VCSH BKN090

Obserwacja i prognoza pogody dla ponad 4000 lotnisk (raport METAR i TAF).

Dostępne stacje oznaczono żółtymi i czerwonymi punktami na mapie.

Najedź kursorem aby zobaczyć nazwę stacji.

Kliknij aby zobaczyć obserwacje i prognozy pogody.

Aby zmienić mapę: kliknij na zielony przycisk z czarnym krzyżykiem, aby powiększyć; na zielony przycisk z myślnikiem, aby pomniejszyć; na zielone strzałki, aby przejść do map sąsiednich.


METAR-TAF: